SondeTracker

Meteorological Radiosondes Database

Operations

Sounding was ended - last measurement: 2022-12-06 13:12:31z

MAP
About Radiosonde

Number: U2010171

Launch Site: Cahersiveen (IE)

Type: RS41-SG

AUX: NO

Frequency: 405.30 MHz

Max Speed: 61 km/h at 25205 m

Average Speed: 24.15 km/h

Max Altitude: 25344 m

Average Ascent Speed: 5.67 m/s

Average Descent Speed: 11.09 m/s

Status: LOST

Status Changes
Launch Site Type AUX Frequency Status Finder Landing Point Description Changes made by
MHz LOST 0, 0 AUTO STATUS: Probably lost in the water [BOT]AUTO-STATUS - 2022-12-06 14:21:37z
APRS Statistics

Received Frames: 163

First Frame [UTC]: 2022-12-06 11:30:08z

Last Frame [UTC]: 2022-12-06 13:12:31z

Receivers: EI6HKB-11

Flight Time: 01:42:23 h

Distance From First Measurement: 28.08 km

Nearest City: Bantry (IE) [82.99 km]

Nearest Hunter: Ei4jn [20.78 km]

Ground Altitude: -123 m

Distance from QTH: 0.00 km

APRS Data
Receiver Number Date/Time [UTC] φ λ Course [°] Speed [km/h] Altitude [m] Description
EI6HKB-11U20101712022-12-06 13:12:3151.783-10.646127237767Clb=-8.4m/s 405.30MHz Type=RS41-SG Aux[] BK=Timed(075507h) RS41Tracker 1.17
EI6HKB-11U20101712022-12-06 13:12:1151.783-10.643526630927Clb=-9.3m/s 405.30MHz Type=RS41-SG Aux[] BK=Timed(075507h) RS41Tracker 1.17
EI6HKB-11U20101712022-12-06 13:11:4951.7832-10.6413255241096Clb=-7.7m/s 405.30MHz Type=RS41-SG Aux[] BK=Timed(075507h) RS41Tracker 1.17
EI6HKB-11U20101712022-12-06 13:11:2951.7836-10.6397236201259Clb=-7.3m/s 405.30MHz Type=RS41-SG Aux[] BK=Timed(075507h) RS41Tracker 1.17
EI6HKB-11U20101712022-12-06 13:11:1051.7843-10.6384223201426Clb=-8.7m/s 405.30MHz Type=RS41-SG Aux[] BK=Timed(075558h) RS41Tracker 1.17
EI6HKB-11U20101712022-12-06 13:10:5051.785-10.6372225201599Clb=-8.8m/s 405.30MHz Type=RS41-SG Aux[] BK=Timed(075558h) RS41Tracker 1.17
EI6HKB-11U20101712022-12-06 13:10:3051.7858-10.6359238221767Clb=-8.8m/s 405.30MHz Type=RS41-SG Aux[] BK=Timed(075558h) RS41Tracker 1.17
EI6HKB-11U20101712022-12-06 13:10:1051.786-10.6333266461932Clb=-7.7m/s 405.30MHz Type=RS41-SG Aux[] BK=Timed(075649h) RS41Tracker 1.17
EI6HKB-11U20101712022-12-06 13:09:5051.7862-10.6296269432108Clb=-8.0m/s 405.30MHz Type=RS41-SG Aux[] BK=Timed(075649h) RS41Tracker 1.17
EI6HKB-11U20101712022-12-06 13:09:3051.7863-10.6262264412281Clb=-7.8m/s 405.30MHz Type=RS41-SG Aux[] BK=Timed(075740h) RS41Tracker 1.17
EI6HKB-11U20101712022-12-06 13:09:1051.7865-10.6229263392451Clb=-9.1m/s 405.30MHz Type=RS41-SG Aux[] BK=Timed(075740h) RS41Tracker 1.17
EI6HKB-11U20101712022-12-06 13:08:5051.7867-10.6199264372621Clb=-8.1m/s 405.30MHz Type=RS41-SG Aux[] BK=Timed(075740h) RS41Tracker 1.17
EI6HKB-11U20101712022-12-06 13:08:3051.7869-10.6168268352788Clb=-9.6m/s 405.30MHz Type=RS41-SG Aux[] BK=Timed(075831h) RS41Tracker 1.17
EI6HKB-11U20101712022-12-06 13:08:1051.787-10.6143265282955Clb=-8.9m/s 405.30MHz Type=RS41-SG Aux[] BK=Timed(075831h) RS41Tracker 1.17
EI6HKB-11U20101712022-12-06 13:07:4851.7871-10.6118264303142Clb=-8.3m/s 405.30MHz Type=RS41-SG Aux[] BK=Timed(075922h) RS41Tracker 1.17
EI6HKB-11U20101712022-12-06 13:07:2851.7874-10.6094255313296Clb=-7.1m/s 405.30MHz Type=RS41-SG Aux[] BK=Timed(075922h) RS41Tracker 1.17
EI6HKB-11U20101712022-12-06 13:07:0851.7878-10.6068260333469Clb=-9.7m/s 405.30MHz Type=RS41-SG Aux[] BK=Timed(075922h) RS41Tracker 1.17
EI6HKB-11U20101712022-12-06 13:06:0851.7882-10.5993268333988Clb=-7.7m/s 405.30MHz Type=RS41-SG Aux[] BK=Timed(080104h) RS41Tracker 1.17
EI6HKB-11U20101712022-12-06 13:05:4851.7883-10.5966265334165Clb=-8.4m/s 405.30MHz Type=RS41-SG Aux[] BK=Timed(080104h) RS41Tracker 1.17
EI6HKB-11U20101712022-12-06 13:05:0851.7885-10.5913260354519Clb=-8.9m/s 405.30MHz Type=RS41-SG Aux[] BK=Timed(080155h) RS41Tracker 1.17
EI6HKB-11U20101712022-12-06 13:04:4851.7889-10.5883256414703Clb=-9.2m/s 405.30MHz Type=RS41-SG Aux[] BK=Timed(080155h) RS41Tracker 1.17
EI6HKB-11U20101712022-12-06 13:04:0851.7897-10.5816267395072Clb=-11.1m/s 405.30MHz Type=RS41-SG Aux[] BK=Timed(080337h) RS41Tracker 1.17
EI6HKB-11U20101712022-12-06 13:00:2251.7885-10.5482269447238Clb=-10.4m/s 405.30MHz Type=RS41-SG Aux[] BK=Timed(080610h) RS41Tracker 1.17
EI6HKB-11U20101712022-12-06 13:00:0251.7887-10.5445262467451Clb=-8.7m/s 405.30MHz Type=RS41-SG Aux[] BK=Timed(080701h) RS41Tracker 1.17
EI6HKB-11U20101712022-12-06 12:57:2251.7904-10.5204282158874Clb=-7.8m/s 405.30MHz Type=RS41-SG Aux[] BK=Timed(080934h) RS41Tracker 1.17
EI6HKB-11U20101712022-12-06 12:57:0251.7901-10.519529799054Clb=-9.2m/s 405.30MHz Type=RS41-SG Aux[] BK=Timed(080934h) RS41Tracker 1.17
EI6HKB-11U20101712022-12-06 12:56:4251.79-10.5187270139226Clb=-7.6m/s 405.30MHz Type=RS41-SG Aux[] BK=Timed(081025h) RS41Tracker 1.17
EI6HKB-11U20101712022-12-06 12:56:2251.79-10.5174262199407Clb=-8.9m/s 405.30MHz Type=RS41-SG Aux[] BK=Timed(081025h) RS41Tracker 1.17
EI6HKB-11U20101712022-12-06 12:55:2251.7908-10.5121249319947Clb=-11.6m/s 405.30MHz Type=RS41-SG Aux[] BK=Timed(081116h) RS41Tracker 1.17
EI6HKB-11U20101712022-12-06 12:54:1051.7923-10.50562671710650Clb=-12.1m/s 405.30MHz Type=RS41-SG Aux[] BK=Timed(081440h) RS41Tracker 1.17
EI6HKB-11U20101712022-12-06 12:53:0251.7921-10.50352371111511Clb=-13.6m/s 405.30MHz Type=RS41-SG Aux[] BK=Timed(081440h) RS41Tracker 1.17
EI6HKB-11U20101712022-12-06 12:52:4251.7921-10.5028312911717Clb=-11.7m/s 405.30MHz Type=RS41-SG Aux[] BK=Timed(081440h) RS41Tracker 1.17
EI6HKB-11U20101712022-12-06 12:51:0251.7925-10.5011275612892Clb=-12.9m/s 405.30MHz Type=RS41-SG Aux[] BK=Timed(081622h) RS41Tracker 1.17
EI6HKB-11U20101712022-12-06 12:50:0051.7923-10.4987169613490Clb=-10.0m/s 405.30MHz Type=RS41-SG Aux[] BK=Timed(081622h) RS41Tracker 1.17
EI6HKB-11U20101712022-12-06 12:49:4051.7927-10.4988184413709Clb=-10.2m/s 405.30MHz Type=RS41-SG Aux[] BK=Timed(081713h) RS41Tracker 1.17
EI6HKB-11U20101712022-12-06 12:47:5451.7931-10.4997355614796Clb=-11.8m/s 405.30MHz Type=RS41-SG Aux[] BK=Timed(081946h) RS41Tracker 1.17
EI6HKB-11U20101712022-12-06 12:47:3251.7929-10.4993285415017Clb=-10.9m/s 405.30MHz Type=RS41-SG Aux[] BK=Timed(081946h) RS41Tracker 1.17
EI6HKB-11U20101712022-12-06 12:47:1251.7929-10.4994171715233Clb=-9.3m/s 405.30MHz Type=RS41-SG Aux[] BK=Timed(081946h) RS41Tracker 1.17
EI6HKB-11U20101712022-12-06 12:45:4851.7963-10.4964226916252Clb=-8.7m/s 405.30MHz Type=RS41-SG Aux[] BK=Timed(082128h) RS41Tracker 1.17
EI6HKB-11U20101712022-12-06 12:45:1851.7969-10.4961781116672Clb=-13.1m/s 405.30MHz Type=RS41-SG Aux[] BK=Timed(082128h) RS41Tracker 1.17
EI6HKB-11U20101712022-12-06 12:44:5851.7978-10.49581752016943Clb=-12.5m/s 405.30MHz Type=RS41-SG Aux[] BK=Timed(082128h) RS41Tracker 1.17
EI6HKB-11U20101712022-12-06 12:44:3851.7991-10.49631603017157Clb=-11.6m/s 405.30MHz Type=RS41-SG Aux[] BK=Timed(082219h) RS41Tracker 1.17
EI6HKB-11U20101712022-12-06 12:44:1851.8005-10.49641853317404Clb=-13.0m/s 405.30MHz Type=RS41-SG Aux[] BK=Timed(082219h) RS41Tracker 1.17
EI6HKB-11U20101712022-12-06 12:43:5851.8015-10.496202917704Clb=-15.9m/s 405.30MHz Type=RS41-SG Aux[] BK=Timed(082310h) RS41Tracker 1.17
EI6HKB-11U20101712022-12-06 12:43:3851.8014-10.4957336618018Clb=-13.1m/s 405.30MHz Type=RS41-SG Aux[] BK=Timed(082310h) RS41Tracker 1.17
EI6HKB-11U20101712022-12-06 12:43:1851.8017-10.49581301318358Clb=-18.0m/s 405.30MHz Type=RS41-SG Aux[] BK=Timed(082310h) RS41Tracker 1.17
EI6HKB-11U20101712022-12-06 12:42:5851.8027-10.49671803318757Clb=-23.0m/s 405.30MHz Type=RS41-SG Aux[] BK=Timed(082401h) RS41Tracker 1.17
EI6HKB-11U20101712022-12-06 12:42:3851.8044-10.49621934119221Clb=-21.7m/s 405.30MHz Type=RS41-SG Aux[] BK=Timed(082401h) RS41Tracker 1.17
EI6HKB-11U20101712022-12-06 12:42:1851.8061-10.49561832419576Clb=-12.4m/s 405.30MHz Type=RS41-SG Aux[] BK=Timed(082452h) RS41Tracker 1.17
EI6HKB-11U20101712022-12-06 12:41:5851.8075-10.49541932819870Clb=-13.2m/s 405.30MHz Type=RS41-SG Aux[] BK=Timed(082452h) RS41Tracker 1.17
EI6HKB-11U20101712022-12-06 12:41:3851.8085-10.49482062820152Clb=-11.5m/s 405.30MHz Type=RS41-SG Aux[] BK=Timed(082452h) RS41Tracker 1.17
EI6HKB-11U20101712022-12-06 12:40:5851.8111-10.49211902220704Clb=-12.4m/s 405.30MHz Type=RS41-SG Aux[] BK=Timed(082543h) RS41Tracker 1.17
EI6HKB-11U20101712022-12-06 12:40:3851.8124-10.49112132420982Clb=-17.8m/s 405.30MHz Type=RS41-SG Aux[] BK=Timed(082634h) RS41Tracker 1.17
EI6HKB-11U20101712022-12-06 12:40:1851.8131-10.49081671921253Clb=-11.7m/s 405.30MHz Type=RS41-SG Aux[] BK=Timed(082634h) RS41Tracker 1.17
EI6HKB-11U20101712022-12-06 12:39:5851.8138-10.49062322021551Clb=-14.4m/s 405.30MHz Type=RS41-SG Aux[] BK=Timed(082634h) RS41Tracker 1.17
EI6HKB-11U20101712022-12-06 12:39:3851.8146-10.491822221888Clb=-21.7m/s 405.30MHz Type=RS41-SG Aux[] BK=Timed(082725h) RS41Tracker 1.17
EI6HKB-11U20101712022-12-06 12:39:1851.8156-10.49061532822192Clb=-15.7m/s 405.30MHz Type=RS41-SG Aux[] BK=Timed(082725h) RS41Tracker 1.17
EI6HKB-11U20101712022-12-06 12:38:5851.8168-10.49181592222497Clb=-24.7m/s 405.30MHz Type=RS41-SG Aux[] BK=Timed(082725h) RS41Tracker 1.17
EI6HKB-11U20101712022-12-06 12:38:3851.8176-10.4921931322815Clb=-15.7m/s 405.30MHz Type=RS41-SG Aux[] BK=Timed(082816h) RS41Tracker 1.17
EI6HKB-11U20101712022-12-06 12:38:1851.8179-10.49231401523125Clb=-17.3m/s 405.30MHz Type=RS41-SG Aux[] BK=Timed(082816h) RS41Tracker 1.17
EI6HKB-11U20101712022-12-06 12:37:5851.8183-10.4931332623435Clb=-14.9m/s 405.30MHz Type=RS41-SG Aux[] BK=Timed(082907h) RS41Tracker 1.17
EI6HKB-11U20101712022-12-06 12:36:5851.8228-10.49641593924388Clb=-18.7m/s 405.30MHz Type=RS41-SG Aux[] BK=Timed(082958h) RS41Tracker 1.17
EI6HKB-11U20101712022-12-06 12:36:3851.8245-10.49771393524777Clb=-18.7m/s 405.30MHz Type=RS41-SG Aux[] BK=Timed(082958h) RS41Tracker 1.17
EI6HKB-11U20101712022-12-06 12:36:1851.8258-10.50041345225083Clb=-16.4m/s 405.30MHz Type=RS41-SG Aux[] BK=Timed(083000h) RS41Tracker 1.17
EI6HKB-11U20101712022-12-06 12:35:3451.8303-10.50341654125344Clb=5.9m/s 405.30MHz Type=RS41-SG Aux[] BK=Timed(083000h) RS41Tracker 1.17
EI6HKB-11U20101712022-12-06 12:35:1451.8326-10.50471556125205Clb=5.3m/s 405.30MHz Type=RS41-SG Aux[] BK=Timed(083000h) RS41Tracker 1.17
EI6HKB-11U20101712022-12-06 12:34:3451.8359-10.51011144324926Clb=7.4m/s 405.30MHz Type=RS41-SG Aux[] BK=Timed(083000h) RS41Tracker 1.17
EI6HKB-11U20101712022-12-06 12:33:3451.8399-10.51611573724533Clb=7.3m/s 405.30MHz Type=RS41-SG Aux[] BK=Timed(083000h) RS41Tracker 1.17
EI6HKB-11U20101712022-12-06 12:33:1451.8417-10.51741483724407Clb=7.1m/s 405.30MHz Type=RS41-SG Aux[] BK=Timed(083000h) RS41Tracker 1.17
EI6HKB-11U20101712022-12-06 12:30:4651.8531-10.52611352023514Clb=6.4m/s 405.30MHz Type=RS41-SG Aux[] BK=Timed(083000h) RS41Tracker 1.17
EI6HKB-11U20101712022-12-06 12:29:4251.8546-10.52881751523113Clb=7.5m/s 405.30MHz Type=RS41-SG Aux[] BK=Timed(083000h) RS41Tracker 1.17
EI6HKB-11U20101712022-12-06 12:28:4051.8564-10.52892072622735Clb=5.6m/s 405.30MHz Type=RS41-SG Aux[] BK=Timed(083000h) RS41Tracker 1.17
EI6HKB-11U20101712022-12-06 12:26:1451.8645-10.534189921886Clb=4.0m/s 405.30MHz Type=RS41-SG Aux[] BK=Timed(083000h) RS41Tracker 1.17
EI6HKB-11U20101712022-12-06 12:25:5451.8654-10.53381711321779Clb=4.3m/s 405.30MHz Type=RS41-SG Aux[] BK=Timed(083000h) RS41Tracker 1.17
EI6HKB-11U20101712022-12-06 12:25:3451.8661-10.53342192021670Clb=6.9m/s 405.30MHz Type=RS41-SG Aux[] BK=Timed(083000h) RS41Tracker 1.17
EI6HKB-11U20101712022-12-06 12:23:0051.8719-10.5282123320838Clb=4.7m/s 405.30MHz Type=RS41-SG Aux[] BK=Timed(083000h) RS41Tracker 1.17
EI6HKB-11U20101712022-12-06 12:22:4051.8731-10.52712222220719Clb=4.2m/s 405.30MHz Type=RS41-SG Aux[] BK=Timed(083000h) RS41Tracker 1.17
EI6HKB-11U20101712022-12-06 12:21:4851.8768-10.52362064620441Clb=5.4m/s 405.30MHz Type=RS41-SG Aux[] BK=Timed(083000h) RS41Tracker 1.17
EI6HKB-11U20101712022-12-06 12:20:4451.883-10.51842093320096Clb=5.4m/s 405.30MHz Type=RS41-SG Aux[] BK=Timed(083000h) RS41Tracker 1.17
EI6HKB-11U20101712022-12-06 12:19:5651.8866-10.51631852619851Clb=4.9m/s 405.30MHz Type=RS41-SG Aux[] BK=Timed(083000h) RS41Tracker 1.17
EI6HKB-11U20101712022-12-06 12:19:3651.8881-10.51591863019745Clb=5.5m/s 405.30MHz Type=RS41-SG Aux[] BK=Timed(083000h) RS41Tracker 1.17
EI6HKB-11U20101712022-12-06 12:19:1051.8898-10.51571872419598Clb=4.9m/s 405.30MHz Type=RS41-SG Aux[] BK=Timed(083000h) RS41Tracker 1.17
EI6HKB-11U20101712022-12-06 12:18:5051.8911-10.51512002819484Clb=5.1m/s 405.30MHz Type=RS41-SG Aux[] BK=Timed(083000h) RS41Tracker 1.17
EI6HKB-11U20101712022-12-06 12:17:0451.8999-10.51281903118884Clb=5.5m/s 405.30MHz Type=RS41-SG Aux[] BK=Timed(083000h) RS41Tracker 1.17
EI6HKB-11U20101712022-12-06 12:16:4451.9015-10.51251813918777Clb=6.0m/s 405.30MHz Type=RS41-SG Aux[] BK=Timed(083000h) RS41Tracker 1.17
EI6HKB-11U20101712022-12-06 12:16:2451.9033-10.51261793018670Clb=4.0m/s 405.30MHz Type=RS41-SG Aux[] BK=Timed(083000h) RS41Tracker 1.17
EI6HKB-11U20101712022-12-06 12:16:0451.9048-10.51341632618560Clb=6.6m/s 405.30MHz Type=RS41-SG Aux[] BK=Timed(083000h) RS41Tracker 1.17
EI6HKB-11U20101712022-12-06 12:15:4451.9057-10.51461192218454Clb=6.2m/s 405.30MHz Type=RS41-SG Aux[] BK=Timed(083000h) RS41Tracker 1.17
EI6HKB-11U20101712022-12-06 12:15:2451.9061-10.51591221318351Clb=5.4m/s 405.30MHz Type=RS41-SG Aux[] BK=Timed(083000h) RS41Tracker 1.17
EI6HKB-11U20101712022-12-06 12:15:0451.9064-10.51691192218251Clb=3.0m/s 405.30MHz Type=RS41-SG Aux[] BK=Timed(083000h) RS41Tracker 1.17
EI6HKB-11U20101712022-12-06 12:14:4451.9068-10.5171202918151Clb=4.9m/s 405.30MHz Type=RS41-SG Aux[] BK=Timed(083000h) RS41Tracker 1.17
EI6HKB-11U20101712022-12-06 12:13:0251.9078-10.51541881517642Clb=4.9m/s 405.30MHz Type=RS41-SG Aux[] BK=Timed(083000h) RS41Tracker 1.17
EI6HKB-11U20101712022-12-06 12:12:3851.9092-10.51492043117519Clb=5.1m/s 405.30MHz Type=RS41-SG Aux[] BK=Timed(083000h) RS41Tracker 1.17
EI6HKB-11U20101712022-12-06 12:12:1851.9104-10.51481742017413Clb=4.6m/s 405.30MHz Type=RS41-SG Aux[] BK=Timed(083000h) RS41Tracker 1.17
EI6HKB-11U20101712022-12-06 12:11:4451.9122-10.51611392417234Clb=4.5m/s 405.30MHz Type=RS41-SG Aux[] BK=Timed(083000h) RS41Tracker 1.17
EI6HKB-11U20101712022-12-06 12:11:2451.9131-10.51691421517129Clb=5.6m/s 405.30MHz Type=RS41-SG Aux[] BK=Timed(083000h) RS41Tracker 1.17
EI6HKB-11U20101712022-12-06 12:11:0451.9136-10.5173176617028Clb=5.0m/s 405.30MHz Type=RS41-SG Aux[] BK=Timed(083000h) RS41Tracker 1.17
EI6HKB-11U20101712022-12-06 12:10:4451.9142-10.5171172916931Clb=4.5m/s 405.30MHz Type=RS41-SG Aux[] BK=Timed(083000h) RS41Tracker 1.17
EI6HKB-11U20101712022-12-06 12:10:2451.9147-10.5171170716835Clb=5.6m/s 405.30MHz Type=RS41-SG Aux[] BK=Timed(083000h) RS41Tracker 1.17
EI6HKB-11U20101712022-12-06 12:10:0451.915-10.5172121316738Clb=4.4m/s 405.30MHz Type=RS41-SG Aux[] BK=Timed(083000h) RS41Tracker 1.17
EI6HKB-11U20101712022-12-06 12:09:2451.9159-10.51642251116541Clb=5.8m/s 405.30MHz Type=RS41-SG Aux[] BK=Timed(083000h) RS41Tracker 1.17
EI6HKB-11U20101712022-12-06 12:09:0451.9162-10.51582701116440Clb=5.2m/s 405.30MHz Type=RS41-SG Aux[] BK=Timed(083000h) RS41Tracker 1.17
EI6HKB-11U20101712022-12-06 12:08:4451.9164-10.515256716344Clb=5.7m/s 405.30MHz Type=RS41-SG Aux[] BK=Timed(083000h) RS41Tracker 1.17
EI6HKB-11U20101712022-12-06 12:08:2451.9164-10.51422811516244Clb=4.0m/s 405.30MHz Type=RS41-SG Aux[] BK=Timed(083000h) RS41Tracker 1.17
EI6HKB-11U20101712022-12-06 12:08:0451.9161-10.51332981116144Clb=5.0m/s 405.30MHz Type=RS41-SG Aux[] BK=Timed(083000h) RS41Tracker 1.17
EI6HKB-11U20101712022-12-06 12:07:4451.9163-10.51232671316046Clb=4.2m/s 405.30MHz Type=RS41-SG Aux[] BK=Timed(083000h) RS41Tracker 1.17
EI6HKB-11U20101712022-12-06 12:07:2451.9167-10.51132231915944Clb=4.9m/s 405.30MHz Type=RS41-SG Aux[] BK=Timed(083000h) RS41Tracker 1.17
EI6HKB-11U20101712022-12-06 12:07:0451.9172-10.51032151715842Clb=5.8m/s 405.30MHz Type=RS41-SG Aux[] BK=Timed(083000h) RS41Tracker 1.17
EI6HKB-11U20101712022-12-06 12:06:4451.9182-10.50952202815737Clb=4.1m/s 405.30MHz Type=RS41-SG Aux[] BK=Timed(083000h) RS41Tracker 1.17
EI6HKB-11U20101712022-12-06 12:06:2451.9195-10.50842022015630Clb=5.9m/s 405.30MHz Type=RS41-SG Aux[] BK=Timed(083000h) RS41Tracker 1.17
EI6HKB-11U20101712022-12-06 12:06:0451.9205-10.50792083015522Clb=6.1m/s 405.30MHz Type=RS41-SG Aux[] BK=Timed(083000h) RS41Tracker 1.17
EI6HKB-11U20101712022-12-06 12:05:4451.9216-10.50712091515415Clb=5.6m/s 405.30MHz Type=RS41-SG Aux[] BK=Timed(083000h) RS41Tracker 1.17
EI6HKB-11U20101712022-12-06 12:05:2451.9222-10.50661951715313Clb=5.3m/s 405.30MHz Type=RS41-SG Aux[] BK=Timed(083000h) RS41Tracker 1.17
EI6HKB-11U20101712022-12-06 12:05:0251.9224-10.5063304615210Clb=5.3m/s 405.30MHz Type=RS41-SG Aux[] BK=Timed(083000h) RS41Tracker 1.17
EI6HKB-11U20101712022-12-06 12:04:4251.9222-10.506331715126Clb=3.9m/s 405.30MHz Type=RS41-SG Aux[] BK=Timed(083000h) RS41Tracker 1.17
EI6HKB-11U20101712022-12-06 12:04:2251.9219-10.5058316415036Clb=2.9m/s 405.30MHz Type=RS41-SG Aux[] BK=Timed(083000h) RS41Tracker 1.17
EI6HKB-11U20101712022-12-06 12:04:0251.9219-10.505266914943Clb=4.9m/s 405.30MHz Type=RS41-SG Aux[] BK=Timed(083000h) RS41Tracker 1.17
EI6HKB-11U20101712022-12-06 12:03:4251.922-10.5042244714847Clb=5.8m/s 405.30MHz Type=RS41-SG Aux[] BK=Timed(083000h) RS41Tracker 1.17
EI6HKB-11U20101712022-12-06 12:03:2251.9224-10.5038217914743Clb=3.8m/s 405.30MHz Type=RS41-SG Aux[] BK=Timed(083000h) RS41Tracker 1.17
EI6HKB-11U20101712022-12-06 12:02:0851.9233-10.50242081314358Clb=4.7m/s 405.30MHz Type=RS41-SG Aux[] BK=Timed(083000h) RS41Tracker 1.17
EI6HKB-11U20101712022-12-06 12:01:4851.9238-10.50211751114254Clb=6.8m/s 405.30MHz Type=RS41-SG Aux[] BK=Timed(083000h) RS41Tracker 1.17
EI6HKB-11U20101712022-12-06 12:01:2251.9251-10.50221752214120Clb=4.7m/s 405.30MHz Type=RS41-SG Aux[] BK=Timed(083000h) RS41Tracker 1.17
EI6HKB-11U20101712022-12-06 12:01:0251.9257-10.5025177714028Clb=3.2m/s 405.30MHz Type=RS41-SG Aux[] BK=Timed(083000h) RS41Tracker 1.17
EI6HKB-11U20101712022-12-06 12:00:4251.9257-10.5023299213938Clb=6.0m/s 405.30MHz Type=RS41-SG Aux[] BK=Timed(083000h) RS41Tracker 1.17
EI6HKB-11U20101712022-12-06 12:00:2251.9258-10.502175713843Clb=4.5m/s 405.30MHz Type=RS41-SG Aux[] BK=Timed(083000h) RS41Tracker 1.17
EI6HKB-11U20101712022-12-06 12:00:0251.9258-10.502561213753Clb=2.2m/s 405.30MHz Type=RS41-SG Aux[] BK=Timed(083000h) RS41Tracker 1.17
EI6HKB-11U20101712022-12-06 11:59:4251.926-10.5027165413659Clb=4.3m/s 405.30MHz Type=RS41-SG Aux[] BK=Timed(083000h) RS41Tracker 1.17
EI6HKB-11U20101712022-12-06 11:59:2251.9263-10.50242321113561Clb=7.9m/s 405.30MHz Type=RS41-SG Aux[] BK=Timed(083000h) RS41Tracker 1.17
EI6HKB-11U20101712022-12-06 11:59:0251.9269-10.50231921513455Clb=5.0m/s 405.30MHz Type=RS41-SG Aux[] BK=Timed(083000h) RS41Tracker 1.17
EI6HKB-11U20101712022-12-06 11:58:4251.9274-10.5019226713350Clb=5.5m/s 405.30MHz Type=RS41-SG Aux[] BK=Timed(083000h) RS41Tracker 1.17
EI6HKB-11U20101712022-12-06 11:56:3651.9288-10.4975195712643Clb=5.5m/s 405.30MHz Type=RS41-SG Aux[] BK=Timed(083000h) RS41Tracker 1.17
EI6HKB-11U20101712022-12-06 11:55:2051.9297-10.496252912195Clb=5.3m/s 405.30MHz Type=RS41-SG Aux[] BK=Timed(083000h) RS41Tracker 1.17
EI6HKB-11U20101712022-12-06 11:54:4251.9294-10.4962206211973Clb=4.6m/s 405.30MHz Type=RS41-SG Aux[] BK=Timed(083000h) RS41Tracker 1.17
EI6HKB-11U20101712022-12-06 11:53:5651.9286-10.49462981111690Clb=5.9m/s 405.30MHz Type=RS41-SG Aux[] BK=Timed(083000h) RS41Tracker 1.17
EI6HKB-11U20101712022-12-06 11:47:5051.9282-10.4667228249402Clb=7.6m/s 405.30MHz Type=RS41-SG Aux[] BK=Timed(083000h) RS41Tracker 1.17
EI6HKB-11U20101712022-12-06 11:47:3051.9286-10.465211289279Clb=5.4m/s 405.30MHz Type=RS41-SG Aux[] BK=Timed(083000h) RS41Tracker 1.17
EI6HKB-11U20101712022-12-06 11:46:4451.9296-10.4619269378970Clb=4.2m/s 405.30MHz Type=RS41-SG Aux[] BK=Timed(083000h) RS41Tracker 1.17
EI6HKB-11U20101712022-12-06 11:45:1851.9292-10.4509269468367Clb=7.7m/s 405.30MHz Type=RS41-SG Aux[] BK=Timed(083000h) RS41Tracker 1.17
EI6HKB-11U20101712022-12-06 11:44:5851.9295-10.4475252528219Clb=5.7m/s 405.30MHz Type=RS41-SG Aux[] BK=Timed(083000h) RS41Tracker 1.17
EI6HKB-11U20101712022-12-06 11:44:3851.9297-10.4432272578086Clb=7.7m/s 405.30MHz Type=RS41-SG Aux[] BK=Timed(083000h) RS41Tracker 1.17
EI6HKB-11U20101712022-12-06 11:44:1851.9302-10.4394256507948Clb=7.8m/s 405.30MHz Type=RS41-SG Aux[] BK=Timed(083000h) RS41Tracker 1.17
EI6HKB-11U20101712022-12-06 11:42:0451.9299-10.4152284447177Clb=7.7m/s 405.30MHz Type=RS41-SG Aux[] BK=Timed(083000h) RS41Tracker 1.17
EI6HKB-11U20101712022-12-06 11:41:2451.9293-10.4086273376933Clb=4.5m/s 405.30MHz Type=RS41-SG Aux[] BK=Timed(083000h) RS41Tracker 1.17
EI6HKB-11U20101712022-12-06 11:40:4051.9286-10.4019281436656Clb=6.7m/s 405.30MHz Type=RS41-SG Aux[] BK=Timed(083000h) RS41Tracker 1.17
EI6HKB-11U20101712022-12-06 11:40:2051.9283-10.399299226535Clb=7.8m/s 405.30MHz Type=RS41-SG Aux[] BK=Timed(083000h) RS41Tracker 1.17
EI6HKB-11U20101712022-12-06 11:40:0051.9279-10.3963268466414Clb=6.6m/s 405.30MHz Type=RS41-SG Aux[] BK=Timed(083000h) RS41Tracker 1.17
EI6HKB-11U20101712022-12-06 11:39:3851.928-10.3935266306269Clb=7.1m/s 405.30MHz Type=RS41-SG Aux[] BK=Timed(083000h) RS41Tracker 1.17
EI6HKB-11U20101712022-12-06 11:39:1851.9285-10.3912247246143Clb=6.8m/s 405.30MHz Type=RS41-SG Aux[] BK=Timed(083000h) RS41Tracker 1.17
EI6HKB-11U20101712022-12-06 11:37:3651.9297-10.3781292305507Clb=6.8m/s 405.30MHz Type=RS41-SG Aux[] BK=Timed(083000h) RS41Tracker 1.17
EI6HKB-11U20101712022-12-06 11:37:1651.9294-10.3754288315390Clb=5.7m/s 405.30MHz Type=RS41-SG Aux[] BK=Timed(083000h) RS41Tracker 1.17
EI6HKB-11U20101712022-12-06 11:36:3651.9291-10.3694274465177Clb=5.9m/s 405.30MHz Type=RS41-SG Aux[] BK=Timed(083000h) RS41Tracker 1.17
EI6HKB-11U20101712022-12-06 11:36:1651.9291-10.3654256505077Clb=5.0m/s 405.30MHz Type=RS41-SG Aux[] BK=Timed(083000h) RS41Tracker 1.17
EI6HKB-11U20101712022-12-06 11:35:1651.9296-10.3541276414781Clb=4.4m/s 405.30MHz Type=RS41-SG Aux[] BK=Timed(083000h) RS41Tracker 1.17
EI6HKB-11U20101712022-12-06 11:34:5651.9298-10.3507267434685Clb=4.5m/s 405.30MHz Type=RS41-SG Aux[] BK=Timed(083000h) RS41Tracker 1.17
EI6HKB-11U20101712022-12-06 11:34:3651.93-10.3475266434593Clb=4.7m/s 405.30MHz Type=RS41-SG Aux[] BK=Timed(083000h) RS41Tracker 1.17
EI6HKB-11U20101712022-12-06 11:33:3451.9296-10.339278334291Clb=5.3m/s 405.30MHz Type=RS41-SG Aux[] BK=Timed(083000h) RS41Tracker 1.17
EI6HKB-11U20101712022-12-06 11:33:1451.9298-10.3363261354187Clb=4.3m/s 405.30MHz Type=RS41-SG Aux[] BK=Timed(083000h) RS41Tracker 1.17
EI6HKB-11U20101712022-12-06 11:32:1451.9293-10.3297276223826Clb=5.7m/s 405.30MHz Type=RS41-SG Aux[] BK=Timed(083000h) RS41Tracker 1.17
EI6HKB-11U20101712022-12-06 11:31:5451.9291-10.3274261353701Clb=6.2m/s 405.30MHz Type=RS41-SG Aux[] BK=Timed(083000h) RS41Tracker 1.17
EI6HKB-11U20101712022-12-06 11:31:0851.9301-10.3223245263413Clb=6.1m/s 405.30MHz Type=RS41-SG Aux[] BK=Timed(083000h) RS41Tracker 1.17
EI6HKB-11U20101712022-12-06 11:30:4851.9308-10.3202246313295Clb=5.1m/s 405.30MHz Type=RS41-SG Aux[] BK=Timed(083000h) RS41Tracker 1.17
EI6HKB-11U20101712022-12-06 11:30:2851.9314-10.3181242283184Clb=6.2m/s 405.30MHz Type=RS41-SG Aux[] BK=Timed(083000h) RS41Tracker 1.17
EI6HKB-11U20101712022-12-06 11:30:0851.932-10.3159257353068Clb=6.0m/s 405.30MHz Type=RS41-SG Aux[] BK=Timed(083000h) RS41Tracker 1.17